createdAt,value
2022-08-05T00:01:36.347Z,61.76
2022-08-05T00:04:16.966Z,62.04
2022-08-05T00:06:47.194Z,62.12
2022-08-05T00:09:15.743Z,62.11
2022-08-05T00:11:56.089Z,62.16
2022-08-05T00:14:29.220Z,62.21
2022-08-05T00:17:01.973Z,62.06
2022-08-05T00:19:40.655Z,62.64
2022-08-05T00:22:13.582Z,62.83
2022-08-05T00:24:45.797Z,62.60
2022-08-05T00:27:35.848Z,62.74
2022-08-05T00:30:05.340Z,62.72
2022-08-05T00:32:39.333Z,63.07
2022-08-05T00:35:09.513Z,63.18
2022-08-05T00:37:52.356Z,63.17
2022-08-05T00:40:28.230Z,63.46
2022-08-05T00:42:59.865Z,63.33
2022-08-05T00:45:42.732Z,63.68
2022-08-05T00:48:13.134Z,63.58
2022-08-05T00:50:44.055Z,63.56
2022-08-05T00:54:00.086Z,63.88
2022-08-05T00:56:00.565Z,63.81
2022-08-05T00:58:29.786Z,63.73
2022-08-05T01:00:57.689Z,64.18
2022-08-05T01:06:01.151Z,64.53
2022-08-05T01:08:42.701Z,64.61
2022-08-05T01:11:22.726Z,64.51
2022-08-05T01:14:11.117Z,64.42
2022-08-05T01:16:49.861Z,64.57
2022-08-05T01:19:56.954Z,64.89
2022-08-05T01:22:38.757Z,65.03
2022-08-05T01:25:40.530Z,65.81
2022-08-05T01:28:23.521Z,65.92
2022-08-05T01:30:55.693Z,65.92
2022-08-05T01:33:35.435Z,66.29
2022-08-05T01:36:12.825Z,66.39
2022-08-05T01:38:45.269Z,66.71
2022-08-05T01:41:16.032Z,66.99
2022-08-05T01:43:51.213Z,67.05
2022-08-05T01:46:42.174Z,67.62
2022-08-05T01:49:23.631Z,67.36
2022-08-05T01:51:58.846Z,67.64
2022-08-05T01:54:33.179Z,67.91
2022-08-05T01:58:11.253Z,68.20
2022-08-05T01:59:53.749Z,68.36
2022-08-05T02:02:26.028Z,68.31
2022-08-05T02:04:57.622Z,68.73
2022-08-05T02:07:26.561Z,68.91
2022-08-05T02:09:58.501Z,69.13
2022-08-05T02:12:35.725Z,69.10
2022-08-05T02:15:12.401Z,69.33
2022-08-05T02:18:30.758Z,69.44
2022-08-05T02:20:51.858Z,69.73
2022-08-05T02:23:23.810Z,70.32
2022-08-05T02:25:54.839Z,70.50
2022-08-05T02:28:28.903Z,70.56
2022-08-05T02:31:04.069Z,71.19
2022-08-05T02:33:38.864Z,71.64
2022-08-05T02:36:13.620Z,71.76
2022-08-05T02:38:53.268Z,71.89
2022-08-05T02:41:28.779Z,72.08
2022-08-05T02:44:13.040Z,72.79
2022-08-05T02:46:58.945Z,73.27
2022-08-05T02:49:36.852Z,73.31
2022-08-05T02:52:09.374Z,74.12
2022-08-05T02:54:41.553Z,74.34
2022-08-05T02:58:11.187Z,75.05
2022-08-05T03:00:02.272Z,75.67
2022-08-05T03:02:37.769Z,75.85
2022-08-05T03:05:07.959Z,76.19
2022-08-05T03:08:00.670Z,76.51
2022-08-05T03:10:25.648Z,77.21
2022-08-05T03:12:55.042Z,77.89
2022-08-05T03:15:23.533Z,78.43
2022-08-05T03:17:55.644Z,79.16
2022-08-05T03:20:24.439Z,80.20
2022-08-05T03:22:57.160Z,81.25
2022-08-05T03:25:33.725Z,82.06
2022-08-05T03:28:18.822Z,83.57
2022-08-05T03:30:48.866Z,84.19
2022-08-05T03:33:19.010Z,85.28
2022-08-05T03:35:48.289Z,85.55
2022-08-05T03:38:23.825Z,86.14
2022-08-05T03:41:00.916Z,86.68
2022-08-05T03:44:08.996Z,87.42
2022-08-05T03:46:26.790Z,87.91
2022-08-05T03:48:59.283Z,88.29
2022-08-05T03:52:39.423Z,89.12
2022-08-05T03:56:01.205Z,89.38
2022-08-05T03:57:16.797Z,89.58
2022-08-05T04:00:05.927Z,89.61
2022-08-05T04:02:52.257Z,89.92
2022-08-05T04:05:33.261Z,90.09
2022-08-05T04:08:03.287Z,90.53
2022-08-05T04:10:38.144Z,90.59
2022-08-05T04:13:07.589Z,91.23
2022-08-05T04:15:36.042Z,91.16
2022-08-05T04:18:06.709Z,91.45
2022-08-05T04:20:37.021Z,91.84
2022-08-05T04:23:05.230Z,92.03
2022-08-05T04:25:56.456Z,91.69
2022-08-05T04:28:21.063Z,91.88
2022-08-05T04:30:58.769Z,91.61
2022-08-05T04:34:18.673Z,91.55
2022-08-05T04:36:49.893Z,91.54
2022-08-05T04:39:06.280Z,90.97
2022-08-05T04:41:36.730Z,91.11
2022-08-05T04:44:09.491Z,90.86
2022-08-05T04:46:38.711Z,90.74
2022-08-05T04:49:12.406Z,90.94
2022-08-05T04:51:44.116Z,90.99
2022-08-05T04:54:12.329Z,90.93
2022-08-05T04:56:40.329Z,91.07
2022-08-05T04:59:21.388Z,91.04
2022-08-05T05:02:07.653Z,91.91
2022-08-05T05:04:47.710Z,92.63
2022-08-05T05:07:23.874Z,93.59
2022-08-05T05:09:57.575Z,94.41
2022-08-05T05:12:29.286Z,95.20
2022-08-05T05:14:57.244Z,95.15
2022-08-05T05:17:56.645Z,95.72
2022-08-05T05:20:14.816Z,95.96
2022-08-05T05:22:44.263Z,95.91
2022-08-05T05:25:16.027Z,95.65
2022-08-05T05:27:53.531Z,95.77
2022-08-05T05:30:29.542Z,96.09
2022-08-05T05:33:09.339Z,96.28
2022-08-05T05:35:47.379Z,95.66
2022-08-05T05:38:22.367Z,94.88
2022-08-05T05:40:54.875Z,94.72
2022-08-05T05:43:54.008Z,94.22
2022-08-05T05:46:17.221Z,94.25
2022-08-05T05:48:48.154Z,94.95
2022-08-05T05:51:24.473Z,94.94
2022-08-05T05:53:59.288Z,95.08
2022-08-05T05:56:34.105Z,95.59
2022-08-05T05:59:05.874Z,95.46
2022-08-05T06:01:37.381Z,95.37
2022-08-05T06:04:07.541Z,95.03
2022-08-05T06:06:36.124Z,95.40
2022-08-05T06:09:07.547Z,94.98
2022-08-05T06:11:39.326Z,94.91
2022-08-05T06:14:07.419Z,95.00
2022-08-05T06:16:36.943Z,95.07
2022-08-05T06:19:07.357Z,95.10
2022-08-05T06:21:38.847Z,94.78
2022-08-05T06:24:12.839Z,94.71
2022-08-05T06:26:51.027Z,94.64
2022-08-05T06:29:43.034Z,95.21
2022-08-05T06:32:25.173Z,93.94
2022-08-05T06:34:57.101Z,95.23
2022-08-05T06:37:52.261Z,95.07
2022-08-05T06:40:18.130Z,94.49
2022-08-05T06:42:52.175Z,93.90
2022-08-05T06:46:03.069Z,93.65
2022-08-05T06:48:37.162Z,94.40
2022-08-05T06:50:57.406Z,94.34
2022-08-05T06:53:39.391Z,94.03
2022-08-05T06:56:25.633Z,93.21
2022-08-05T06:58:57.227Z,93.28
2022-08-05T07:01:27.579Z,93.45
2022-08-05T07:04:00.415Z,93.32
2022-08-05T07:06:28.832Z,93.18
2022-08-05T07:08:59.021Z,94.39
2022-08-05T07:11:30.988Z,95.74
2022-08-05T07:14:20.418Z,96.32
2022-08-05T07:18:01.835Z,95.13
2022-08-05T07:22:36.979Z,95.13
2022-08-05T07:25:22.182Z,94.90
2022-08-05T07:27:58.526Z,95.45
2022-08-05T07:30:34.193Z,95.45
2022-08-05T07:33:05.231Z,95.64
2022-08-05T07:36:02.439Z,95.63
2022-08-05T07:38:34.078Z,96.25
2022-08-05T07:42:08.969Z,96.17
2022-08-05T07:43:56.332Z,96.40
2022-08-05T07:46:26.407Z,96.57
2022-08-05T07:49:01.747Z,96.88
2022-08-05T07:51:52.838Z,97.00
2022-08-05T07:54:31.684Z,97.32
2022-08-05T07:57:13.546Z,98.22
2022-08-05T07:59:49.004Z,98.67
2022-08-05T08:02:18.035Z,99.35
2022-08-05T08:04:48.780Z,99.60
2022-08-05T08:07:22.456Z,100.00
2022-08-05T08:09:54.866Z,99.56
2022-08-05T08:12:37.171Z,99.12
2022-08-05T08:15:15.648Z,99.87
2022-08-05T08:17:50.679Z,99.51
2022-08-05T08:20:45.293Z,100.00
2022-08-05T08:23:59.694Z,100.00
2022-08-05T08:25:59.809Z,100.00
2022-08-05T08:28:36.672Z,100.00
2022-08-05T08:31:15.081Z,99.66
2022-08-05T08:33:46.155Z,100.00
2022-08-05T08:36:39.187Z,98.93
2022-08-05T08:39:15.045Z,99.40
2022-08-05T08:41:52.310Z,98.65
2022-08-05T08:45:20.004Z,97.56
2022-08-05T08:48:07.648Z,97.89
2022-08-05T08:50:31.103Z,97.22
2022-08-05T08:53:11.990Z,97.45
2022-08-05T08:56:05.105Z,96.11
2022-08-05T08:58:37.578Z,95.10
2022-08-05T09:01:16.630Z,94.69
2022-08-05T09:03:48.098Z,93.44
2022-08-05T09:06:20.349Z,93.22
2022-08-05T09:08:49.668Z,92.78
2022-08-05T09:11:17.728Z,90.12
2022-08-05T09:14:53.967Z,88.54
2022-08-05T09:16:53.930Z,89.23
2022-08-05T09:19:27.932Z,88.69
2022-08-05T09:22:23.205Z,88.16
2022-08-05T09:24:59.848Z,87.39
2022-08-05T09:28:04.600Z,87.35
2022-08-05T09:30:23.646Z,88.05
2022-08-05T09:32:52.936Z,87.24
2022-08-05T09:35:27.293Z,87.62
2022-08-05T09:38:12.310Z,87.77
2022-08-05T09:40:53.702Z,87.56
2022-08-05T09:43:41.005Z,85.04
2022-08-05T09:46:27.622Z,82.21
2022-08-05T09:49:07.625Z,81.31
2022-08-05T09:51:49.357Z,81.32
2022-08-05T09:54:21.343Z,81.51
2022-08-05T09:56:57.541Z,80.76
2022-08-05T09:59:27.615Z,80.69
2022-08-05T10:01:58.402Z,81.00
2022-08-05T10:04:38.482Z,81.10
2022-08-05T10:07:19.729Z,81.08
2022-08-05T10:10:13.732Z,81.23
2022-08-05T10:12:50.060Z,80.52
2022-08-05T10:15:26.559Z,79.60
2022-08-05T10:18:22.964Z,78.28
2022-08-05T10:20:53.469Z,77.78
2022-08-05T10:23:50.928Z,78.21
2022-08-05T10:26:13.816Z,77.58
2022-08-05T10:28:43.608Z,77.88
2022-08-05T10:32:48.155Z,78.35
2022-08-05T10:34:01.917Z,77.26
2022-08-05T10:36:30.954Z,77.92
2022-08-05T10:39:10.187Z,76.42
2022-08-05T10:41:47.624Z,74.99
2022-08-05T10:44:19.438Z,75.36
2022-08-05T10:46:50.674Z,75.97
2022-08-05T10:49:26.966Z,74.94
2022-08-05T10:52:00.336Z,73.54
2022-08-05T10:54:56.025Z,71.49
2022-08-05T10:57:29.548Z,71.70
2022-08-05T11:00:19.784Z,70.50
2022-08-05T11:03:25.054Z,69.44
2022-08-05T11:06:06.115Z,68.92
2022-08-05T11:08:39.129Z,68.98
2022-08-05T11:11:44.340Z,68.69
2022-08-05T11:14:13.829Z,68.68
2022-08-05T11:16:56.099Z,67.79
2022-08-05T11:20:16.937Z,65.98
2022-08-05T11:22:42.297Z,65.13
2022-08-05T11:26:05.595Z,64.62
2022-08-05T11:28:44.304Z,65.18
2022-08-05T11:31:58.375Z,64.60
2022-08-05T11:34:37.332Z,64.66
2022-08-05T11:37:06.119Z,65.00
2022-08-05T11:40:00.818Z,64.43
2022-08-05T11:42:40.244Z,64.71
2022-08-05T11:45:23.278Z,64.68
2022-08-05T11:47:58.804Z,64.60
2022-08-05T11:50:27.242Z,64.20
2022-08-05T11:52:58.182Z,64.23
2022-08-05T11:55:32.040Z,64.30
2022-08-05T11:58:09.999Z,63.97
2022-08-05T12:00:44.456Z,63.97
2022-08-05T12:03:28.656Z,62.97
2022-08-05T12:06:01.992Z,62.79
2022-08-05T12:08:32.668Z,62.08
2022-08-05T12:11:05.684Z,61.09
2022-08-05T12:13:48.973Z,59.21
2022-08-05T12:16:25.693Z,58.59
2022-08-05T12:18:55.336Z,59.55
2022-08-05T12:21:30.214Z,60.08
2022-08-05T12:24:06.699Z,60.19
2022-08-05T12:26:37.311Z,60.59
2022-08-05T12:29:09.669Z,61.01
2022-08-05T12:31:49.818Z,60.82
2022-08-05T12:34:23.791Z,61.25
2022-08-05T12:36:54.876Z,61.48
2022-08-05T12:39:28.081Z,61.71
2022-08-05T12:42:02.315Z,62.21
2022-08-05T12:44:33.266Z,62.25
2022-08-05T12:47:03.835Z,62.32
2022-08-05T12:50:04.492Z,62.23
2022-08-05T12:52:38.143Z,61.75
2022-08-05T12:55:22.258Z,60.60
2022-08-05T12:58:49.931Z,58.57
2022-08-05T13:02:05.074Z,58.07
2022-08-05T13:03:41.553Z,58.31
2022-08-05T13:06:15.977Z,57.55
2022-08-05T13:08:50.638Z,56.73
2022-08-05T13:11:25.491Z,56.85
2022-08-05T13:14:25.046Z,56.78
2022-08-05T13:17:08.884Z,56.36
2022-08-05T13:19:52.455Z,55.75
2022-08-05T13:22:29.188Z,55.24
2022-08-05T13:25:00.631Z,55.15
2022-08-05T13:27:38.670Z,55.70
2022-08-05T13:30:35.144Z,56.19
2022-08-05T13:33:01.203Z,56.64
2022-08-05T13:35:47.073Z,56.62
2022-08-05T13:38:28.516Z,55.82
2022-08-05T13:41:02.256Z,57.49
2022-08-05T13:43:44.020Z,58.34
2022-08-05T13:46:14.814Z,60.67
2022-08-05T13:48:57.308Z,64.52
2022-08-05T13:51:36.416Z,67.40
2022-08-05T13:54:12.971Z,68.48
2022-08-05T13:56:45.014Z,69.03
2022-08-05T13:59:21.386Z,70.27
2022-08-05T14:01:58.038Z,71.01
2022-08-05T14:04:50.590Z,71.60
2022-08-05T14:07:59.517Z,72.35
2022-08-05T14:10:18.350Z,73.20
2022-08-05T14:12:48.600Z,74.46
2022-08-05T14:16:06.927Z,75.60
2022-08-05T14:18:05.655Z,76.32
2022-08-05T14:20:33.558Z,76.24
2022-08-05T14:23:02.858Z,76.11
2022-08-05T14:25:30.762Z,77.55
2022-08-05T14:27:59.058Z,78.29
2022-08-05T14:30:28.331Z,78.97
2022-08-05T14:32:58.807Z,79.64
2022-08-05T14:35:36.299Z,79.92
2022-08-05T14:38:32.458Z,79.57
2022-08-05T14:41:05.836Z,77.42
2022-08-05T14:43:58.767Z,76.50
2022-08-05T14:46:28.108Z,77.46
2022-08-05T14:48:57.978Z,75.94
2022-08-05T14:51:30.716Z,76.75
2022-08-05T14:54:26.953Z,76.01
2022-08-05T14:56:48.310Z,76.28
2022-08-05T14:59:16.330Z,76.35
2022-08-05T15:01:47.848Z,76.78
2022-08-05T15:04:17.342Z,75.97
2022-08-05T15:06:49.382Z,77.22
2022-08-05T15:09:51.841Z,77.51
2022-08-05T15:12:09.339Z,76.53
2022-08-05T15:14:48.279Z,75.82
2022-08-05T15:17:44.762Z,76.03
2022-08-05T15:20:11.982Z,76.36
2022-08-05T15:22:45.477Z,75.61
2022-08-05T15:25:14.857Z,75.79
2022-08-05T15:27:52.366Z,76.70
2022-08-05T15:30:20.726Z,75.98
2022-08-05T15:32:50.340Z,76.46
2022-08-05T15:35:18.634Z,76.29
2022-08-05T15:38:32.903Z,76.38
2022-08-05T15:41:02.716Z,75.90
2022-08-05T15:43:27.380Z,75.30
2022-08-05T15:46:00.626Z,75.53
2022-08-05T15:48:30.135Z,75.55
2022-08-05T15:51:03.285Z,75.97
2022-08-05T15:53:37.904Z,76.26
2022-08-05T15:56:19.602Z,76.20
2022-08-05T15:58:48.259Z,76.05
2022-08-05T16:01:18.979Z,76.27
2022-08-05T16:03:50.478Z,74.33
2022-08-05T16:06:20.894Z,74.33
2022-08-05T16:08:55.319Z,74.24
2022-08-05T16:11:43.167Z,72.68
2022-08-05T16:14:17.042Z,72.74
2022-08-05T16:16:46.528Z,72.84
2022-08-05T16:19:25.887Z,72.61
2022-08-05T16:22:03.027Z,73.76
2022-08-05T16:24:40.087Z,74.87
2022-08-05T16:27:15.962Z,74.41
2022-08-05T16:29:50.383Z,73.97
2022-08-05T16:32:28.530Z,74.12
2022-08-05T16:34:58.753Z,74.21
2022-08-05T16:38:16.375Z,73.34
2022-08-05T16:40:28.939Z,73.36
2022-08-05T16:42:58.589Z,73.63
2022-08-05T16:46:06.745Z,72.72
2022-08-05T16:48:26.012Z,71.14
2022-08-05T16:51:01.629Z,71.26
2022-08-05T16:53:32.134Z,71.56
2022-08-05T16:56:17.334Z,71.62
2022-08-05T16:58:46.480Z,71.48
2022-08-05T17:01:14.671Z,71.23
2022-08-05T17:03:42.568Z,70.94
2022-08-05T17:06:10.981Z,70.04
2022-08-05T17:08:53.581Z,69.95
2022-08-05T17:11:23.887Z,70.06
2022-08-05T17:14:05.583Z,69.91
2022-08-05T17:16:36.201Z,69.16
2022-08-05T17:19:07.121Z,68.90
2022-08-05T17:21:36.946Z,69.62
2022-08-05T17:24:14.310Z,68.87
2022-08-05T17:26:55.364Z,68.16
2022-08-05T17:29:40.260Z,67.96
2022-08-05T17:32:11.935Z,67.48
2022-08-05T17:34:47.655Z,67.06
2022-08-05T17:37:39.508Z,66.37
2022-08-05T17:40:10.738Z,66.26
2022-08-05T17:42:41.802Z,66.31
2022-08-05T17:45:22.904Z,66.47
2022-08-05T17:47:56.067Z,66.95
2022-08-05T17:50:29.958Z,66.62
2022-08-05T17:53:00.142Z,66.41
2022-08-05T17:55:37.664Z,66.75
2022-08-05T17:58:09.421Z,66.46
2022-08-05T18:00:45.395Z,67.03
2022-08-05T18:03:39.199Z,67.18
2022-08-05T18:06:11.853Z,67.98
2022-08-05T18:08:46.198Z,68.34
2022-08-05T18:11:23.830Z,68.65
2022-08-05T18:13:54.673Z,68.98
2022-08-05T18:16:24.586Z,68.52
2022-08-05T18:18:52.390Z,68.49
2022-08-05T18:21:22.816Z,68.62
2022-08-05T18:23:54.299Z,68.75
2022-08-05T18:26:27.727Z,69.14
2022-08-05T18:28:58.029Z,68.68
2022-08-05T18:31:33.963Z,68.71
2022-08-05T18:34:06.197Z,69.29
2022-08-05T18:36:36.027Z,69.25
2022-08-05T18:39:09.714Z,69.35
2022-08-05T18:41:58.534Z,69.27
2022-08-05T18:44:34.777Z,68.89
2022-08-05T18:47:05.041Z,68.87
2022-08-05T18:49:58.039Z,68.83
2022-08-05T18:52:35.729Z,68.81
2022-08-05T18:55:06.474Z,68.94
2022-08-05T18:57:43.626Z,69.34
2022-08-05T19:00:21.056Z,69.24
2022-08-05T19:03:03.916Z,69.95
2022-08-05T19:06:13.575Z,70.10
2022-08-05T19:08:30.601Z,70.43
2022-08-05T19:11:04.444Z,70.42
2022-08-05T19:13:36.026Z,71.20
2022-08-05T19:16:24.421Z,71.36
2022-08-05T19:18:56.815Z,71.62
2022-08-05T19:21:29.407Z,71.73
2022-08-05T19:24:07.724Z,72.22
2022-08-05T19:26:43.809Z,72.33
2022-08-05T19:29:35.479Z,72.26
2022-08-05T19:32:05.168Z,72.60
2022-08-05T19:34:37.697Z,73.00
2022-08-05T19:37:06.490Z,73.27
2022-08-05T19:39:45.608Z,73.52
2022-08-05T19:42:19.387Z,73.83
2022-08-05T19:45:06.009Z,74.27
2022-08-05T19:47:34.335Z,74.11
2022-08-05T19:50:07.735Z,74.34
2022-08-05T19:52:40.763Z,74.52
2022-08-05T19:56:14.630Z,74.78
2022-08-05T19:58:10.409Z,75.34
2022-08-05T20:00:46.518Z,75.41
2022-08-05T20:03:14.757Z,75.56
2022-08-05T20:05:51.263Z,75.56
2022-08-05T20:08:20.757Z,75.75
2022-08-05T20:10:53.025Z,75.88
2022-08-05T20:13:30.391Z,76.35
2022-08-05T20:16:09.951Z,76.51
2022-08-05T20:18:38.386Z,77.19
2022-08-05T20:21:08.833Z,77.09
2022-08-05T20:23:40.714Z,77.44
2022-08-05T20:26:19.962Z,77.58
2022-08-05T20:28:50.672Z,77.79
2022-08-05T20:31:21.823Z,77.89
2022-08-05T20:33:51.030Z,78.28
2022-08-05T20:36:21.450Z,78.42
2022-08-05T20:38:54.401Z,78.66
2022-08-05T20:41:44.564Z,79.04
2022-08-05T20:44:18.694Z,79.15
2022-08-05T20:46:57.785Z,79.18
2022-08-05T20:49:26.162Z,79.51
2022-08-05T20:51:57.337Z,79.67
2022-08-05T20:54:43.514Z,79.95
2022-08-05T20:57:15.035Z,79.95
2022-08-05T21:00:19.638Z,80.31
2022-08-05T21:02:55.422Z,80.69
2022-08-05T21:05:25.122Z,80.83
2022-08-05T21:07:54.359Z,81.08
2022-08-05T21:10:27.445Z,81.45
2022-08-05T21:13:08.840Z,81.80
2022-08-05T21:15:44.318Z,81.73
2022-08-05T21:18:12.370Z,81.83
2022-08-05T21:20:41.948Z,81.98
2022-08-05T21:23:13.001Z,81.60
2022-08-05T21:25:44.743Z,81.77
2022-08-05T21:28:12.820Z,81.69
2022-08-05T21:30:46.548Z,81.28
2022-08-05T21:33:22.518Z,81.33
2022-08-05T21:35:58.825Z,81.26
2022-08-05T21:38:28.519Z,81.61
2022-08-05T21:40:56.683Z,81.78
2022-08-05T21:43:25.924Z,81.56
2022-08-05T21:45:57.854Z,81.64
2022-08-05T21:48:28.791Z,81.22
2022-08-05T21:50:57.407Z,81.03
2022-08-05T21:53:27.212Z,80.87
2022-08-05T21:56:05.869Z,80.69
2022-08-05T21:58:57.043Z,80.87
2022-08-05T22:01:26.297Z,80.75
2022-08-05T22:03:54.298Z,80.48
2022-08-05T22:06:35.492Z,79.41
2022-08-05T22:09:13.647Z,79.73
2022-08-05T22:11:46.856Z,79.19
2022-08-05T22:14:34.517Z,78.34
2022-08-05T22:17:06.572Z,77.96
2022-08-05T22:20:02.747Z,77.69
2022-08-05T22:22:28.137Z,77.38
2022-08-05T22:25:20.922Z,77.34
2022-08-05T22:28:08.827Z,76.72
2022-08-05T22:30:43.994Z,76.40
2022-08-05T22:33:58.514Z,76.21
2022-08-05T22:36:14.466Z,76.15
2022-08-05T22:38:43.998Z,76.46
2022-08-05T22:42:04.152Z,76.09
2022-08-05T22:44:07.495Z,75.98
2022-08-05T22:46:39.388Z,75.71
2022-08-05T22:49:23.452Z,76.33
2022-08-05T22:52:06.671Z,76.02
2022-08-05T22:54:37.222Z,75.37
2022-08-05T22:57:07.331Z,75.02
2022-08-05T22:59:45.488Z,74.93
2022-08-05T23:02:17.905Z,74.39
2022-08-05T23:04:52.196Z,74.19
2022-08-05T23:07:22.054Z,73.93
2022-08-05T23:09:58.141Z,74.13
2022-08-05T23:12:32.687Z,73.98
2022-08-05T23:15:03.947Z,73.98
2022-08-05T23:18:02.434Z,73.77
2022-08-05T23:20:25.346Z,74.06
2022-08-05T23:22:56.089Z,74.44
2022-08-05T23:25:51.089Z,74.66
2022-08-05T23:28:12.857Z,74.53
2022-08-05T23:30:53.651Z,74.55
2022-08-05T23:34:03.008Z,74.98
2022-08-05T23:36:13.535Z,74.66
2022-08-05T23:38:43.439Z,75.04
2022-08-05T23:41:12.168Z,75.47
2022-08-05T23:44:06.073Z,75.81
2022-08-05T23:46:30.275Z,75.39
2022-08-05T23:49:00.305Z,75.34
2022-08-05T23:51:53.363Z,75.25
2022-08-05T23:54:25.949Z,74.85
2022-08-05T23:56:58.276Z,75.37
